<?xml version="1.0" encoding="utf-8"?>
<gpx xmlns:xsi="http://www.w3.org/2001/XMLSchema-instance" xmlns:xsd="http://www.w3.org/2001/XMLSchema" version="1.1" creator="Shapelink.com" xmlns="http://www.topografix.com/GPX/1/1" xmlns:gpxtpx="http://www.garmin.com/xmlschemas/TrackPointExtension/v1">
  <metadata>
    <name>Övrigt 2.26 km, 2020-06-29</name>
    <desc></desc>
    <author><name>Marian Moron</name></author> 
    <time>2020-06-29T20:39:41Z</time>
  </metadata>
  <trk>
    <name>Övrigt 2.26 km, 2020-06-29</name>
    <trkseg>
      <trkpt lat="51.229318265295" lon="4.458184753284">
        <ele>29.2</ele>
        <time>2020-06-29T20:39:41Z</time>
      </trkpt>
      <trkpt lat="51.229250791" lon="4.458280055487">
        <ele>21.2</ele>
        <time>2020-06-29T20:39:58Z</time>
      </trkpt>
      <trkpt lat="51.229182729972" lon="4.458320456245">
        <ele>17.6</ele>
        <time>2020-06-29T20:40:09Z</time>
      </trkpt>
      <trkpt lat="51.229142077757" lon="4.458321545892">
        <ele>18.6</ele>
        <time>2020-06-29T20:40:21Z</time>
      </trkpt>
      <trkpt lat="51.228792552527" lon="4.458276535089">
        <ele>17.2</ele>
        <time>2020-06-29T20:41:21Z</time>
      </trkpt>
      <trkpt lat="51.228779057668" lon="4.458279887849">
        <ele>17.2</ele>
        <time>2020-06-29T20:41:22Z</time>
      </trkpt>
      <trkpt lat="51.228548471599" lon="4.458398575553">
        <ele>16</ele>
        <time>2020-06-29T20:41:42Z</time>
      </trkpt>
      <trkpt lat="51.228526427202" lon="4.458423637434">
        <ele>15.6</ele>
        <time>2020-06-29T20:41:45Z</time>
      </trkpt>
      <trkpt lat="51.228531288704" lon="4.458392289128">
        <ele>14.8</ele>
        <time>2020-06-29T20:42:00Z</time>
      </trkpt>
      <trkpt lat="51.228516955655" lon="4.457909491688">
        <ele>9</ele>
        <time>2020-06-29T20:42:41Z</time>
      </trkpt>
      <trkpt lat="51.228536904577" lon="4.457476063639">
        <ele>3.4</ele>
        <time>2020-06-29T20:43:16Z</time>
      </trkpt>
      <trkpt lat="51.228554925662" lon="4.45723374291">
        <ele>2.2</ele>
        <time>2020-06-29T20:44:08Z</time>
      </trkpt>
      <trkpt lat="51.228770843406" lon="4.457033750776">
        <ele>3.4</ele>
        <time>2020-06-29T20:44:41Z</time>
      </trkpt>
      <trkpt lat="51.228923310167" lon="4.456982369729">
        <ele>3.8</ele>
        <time>2020-06-29T20:44:55Z</time>
      </trkpt>
      <trkpt lat="51.229095139117" lon="4.4567987223">
        <ele>1.2</ele>
        <time>2020-06-29T20:45:17Z</time>
      </trkpt>
      <trkpt lat="51.229331592516" lon="4.456746503063">
        <ele>0</ele>
        <time>2020-06-29T20:45:50Z</time>
      </trkpt>
      <trkpt lat="51.229699725564" lon="4.456481299747">
        <ele>0</ele>
        <time>2020-06-29T20:46:29Z</time>
      </trkpt>
      <trkpt lat="51.229987224734" lon="4.456452214554">
        <ele>0</ele>
        <time>2020-06-29T20:47:16Z</time>
      </trkpt>
      <trkpt lat="51.230361979483" lon="4.456470319458">
        <ele>8</ele>
        <time>2020-06-29T20:48:01Z</time>
      </trkpt>
      <trkpt lat="51.230450659985" lon="4.456518850659">
        <ele>10.6</ele>
        <time>2020-06-29T20:48:12Z</time>
      </trkpt>
      <trkpt lat="51.230854499927" lon="4.456324642036">
        <ele>11.8</ele>
        <time>2020-06-29T20:48:47Z</time>
      </trkpt>
      <trkpt lat="51.230956926745" lon="4.456132025974">
        <ele>4</ele>
        <time>2020-06-29T20:49:40Z</time>
      </trkpt>
      <trkpt lat="51.231227578296" lon="4.455811837394">
        <ele>0</ele>
        <time>2020-06-29T20:50:22Z</time>
      </trkpt>
      <trkpt lat="51.231137221414" lon="4.455125862698">
        <ele>2.6</ele>
        <time>2020-06-29T20:51:03Z</time>
      </trkpt>
      <trkpt lat="51.231019539538" lon="4.454432847206">
        <ele>0.4</ele>
        <time>2020-06-29T20:51:40Z</time>
      </trkpt>
      <trkpt lat="51.230972936174" lon="4.454173762677">
        <ele>0</ele>
        <time>2020-06-29T20:52:04Z</time>
      </trkpt>
      <trkpt lat="51.23086430675" lon="4.453466749412">
        <ele>0</ele>
        <time>2020-06-29T20:52:49Z</time>
      </trkpt>
      <trkpt lat="51.230813344798" lon="4.452743810537">
        <ele>6.2</ele>
        <time>2020-06-29T20:53:35Z</time>
      </trkpt>
      <trkpt lat="51.230805130536" lon="4.452729896583">
        <ele>6.8</ele>
        <time>2020-06-29T20:53:36Z</time>
      </trkpt>
      <trkpt lat="51.230635648518" lon="4.452052639063">
        <ele>3.2</ele>
        <time>2020-06-29T20:54:14Z</time>
      </trkpt>
      <trkpt lat="51.230489719639" lon="4.451378315208">
        <ele>0</ele>
        <time>2020-06-29T20:54:51Z</time>
      </trkpt>
      <trkpt lat="51.230506148163" lon="4.451254179269">
        <ele>0</ele>
        <time>2020-06-29T20:54:59Z</time>
      </trkpt>
      <trkpt lat="51.230469435441" lon="4.450817314641">
        <ele>0</ele>
        <time>2020-06-29T20:55:32Z</time>
      </trkpt>
      <trkpt lat="51.230479158445" lon="4.450787726534">
        <ele>0</ele>
        <time>2020-06-29T20:55:34Z</time>
      </trkpt>
      <trkpt lat="51.23084670476" lon="4.450539538475">
        <ele>5</ele>
        <time>2020-06-29T20:56:38Z</time>
      </trkpt>
      <trkpt lat="51.231087181471" lon="4.450526797987">
        <ele>7.8</ele>
        <time>2020-06-29T20:57:19Z</time>
      </trkpt>
      <trkpt lat="51.231220453681" lon="4.450681276404">
        <ele>2.6</ele>
        <time>2020-06-29T20:57:51Z</time>
      </trkpt>
      <trkpt lat="51.231237804214" lon="4.450871294077">
        <ele>0</ele>
        <time>2020-06-29T20:58:12Z</time>
      </trkpt>
      <trkpt lat="51.231250460883" lon="4.450980342596">
        <ele>0</ele>
        <time>2020-06-29T20:58:19Z</time>
      </trkpt>
      <trkpt lat="51.231255825299" lon="4.451059467732">
        <ele>0</ele>
        <time>2020-06-29T20:58:24Z</time>
      </trkpt>
      <trkpt lat="51.231289604356" lon="4.451265746291">
        <ele>0</ele>
        <time>2020-06-29T20:58:36Z</time>
      </trkpt>
      <trkpt lat="51.2312959746" lon="4.451379488674">
        <ele>0</ele>
        <time>2020-06-29T20:58:42Z</time>
      </trkpt>
      <trkpt lat="51.231325897983" lon="4.451579564627">
        <ele>0</ele>
        <time>2020-06-29T20:58:54Z</time>
      </trkpt>
      <trkpt lat="51.231343667611" lon="4.451680566522">
        <ele>0</ele>
        <time>2020-06-29T20:59:03Z</time>
      </trkpt>
      <trkpt lat="51.23137560265" lon="4.451774024707">
        <ele>0</ele>
        <time>2020-06-29T20:59:13Z</time>
      </trkpt>
      <trkpt lat="51.231389935699" lon="4.451814425465">
        <ele>0</ele>
        <time>2020-06-29T20:59:16Z</time>
      </trkpt>
      <trkpt lat="51.231423630937" lon="4.451944512553">
        <ele>0</ele>
        <time>2020-06-29T20:59:23Z</time>
      </trkpt>
      <trkpt lat="51.231456320347" lon="4.452193957897">
        <ele>0</ele>
        <time>2020-06-29T20:59:52Z</time>
      </trkpt>
      <trkpt lat="51.231496218191" lon="4.452370648349">
        <ele>0</ele>
        <time>2020-06-29T21:00:02Z</time>
      </trkpt>
      <trkpt lat="51.231490350861" lon="4.452432003857">
        <ele>0</ele>
        <time>2020-06-29T21:00:07Z</time>
      </trkpt>
      <trkpt lat="51.231502756073" lon="4.452503501464">
        <ele>0</ele>
        <time>2020-06-29T21:00:24Z</time>
      </trkpt>
      <trkpt lat="51.231621611415" lon="4.453205988503">
        <ele>0</ele>
        <time>2020-06-29T21:01:05Z</time>
      </trkpt>
      <trkpt lat="51.231596214258" lon="4.453239683741">
        <ele>0</ele>
        <time>2020-06-29T21:01:32Z</time>
      </trkpt>
      <trkpt lat="51.231693528117" lon="4.453547299471">
        <ele>0</ele>
        <time>2020-06-29T21:02:07Z</time>
      </trkpt>
      <trkpt lat="51.231795368202" lon="4.453808982389">
        <ele>0</ele>
        <time>2020-06-29T21:02:34Z</time>
      </trkpt>
      <trkpt lat="51.231826884146" lon="4.453887017878">
        <ele>0</ele>
        <time>2020-06-29T21:02:42Z</time>
      </trkpt>
      <trkpt lat="51.231849934371" lon="4.454272501459">
        <ele>0</ele>
        <time>2020-06-29T21:03:05Z</time>
      </trkpt>
      <trkpt lat="51.231860244108" lon="4.454429745903">
        <ele>0</ele>
        <time>2020-06-29T21:03:18Z</time>
      </trkpt>
      <trkpt lat="51.231897208287" lon="4.454631833512">
        <ele>0</ele>
        <time>2020-06-29T21:03:56Z</time>
      </trkpt>
      <trkpt lat="51.231937609045" lon="4.454801902263">
        <ele>0</ele>
        <time>2020-06-29T21:04:08Z</time>
      </trkpt>
      <trkpt lat="51.2319497628" lon="4.454851439292">
        <ele>0</ele>
        <time>2020-06-29T21:04:11Z</time>
      </trkpt>
      <trkpt lat="51.231992175214" lon="4.455408835642">
        <ele>0</ele>
        <time>2020-06-29T21:04:49Z</time>
      </trkpt>
      <trkpt lat="51.232083621743" lon="4.455689713111">
        <ele>0</ele>
        <time>2020-06-29T21:05:31Z</time>
      </trkpt>
      <trkpt lat="51.232126201795" lon="4.45597226696">
        <ele>0</ele>
        <time>2020-06-29T21:05:55Z</time>
      </trkpt>
      <trkpt lat="51.232144306699" lon="4.456093133958">
        <ele>0</ele>
        <time>2020-06-29T21:06:09Z</time>
      </trkpt>
      <trkpt lat="51.232242542567" lon="4.456698893871">
        <ele>0</ele>
        <time>2020-06-29T21:06:47Z</time>
      </trkpt>
      <trkpt lat="51.232240782368" lon="4.456778102826">
        <ele>0</ele>
        <time>2020-06-29T21:06:53Z</time>
      </trkpt>
      <trkpt lat="51.232169117123" lon="4.456757315714">
        <ele>0</ele>
        <time>2020-06-29T21:07:03Z</time>
      </trkpt>
      <trkpt lat="51.231919504141" lon="4.456873740305">
        <ele>0</ele>
        <time>2020-06-29T21:07:36Z</time>
      </trkpt>
      <trkpt lat="51.231507030842" lon="4.456601831469">
        <ele>0</ele>
        <time>2020-06-29T21:08:20Z</time>
      </trkpt>
      <trkpt lat="51.231409046431" lon="4.456456154047">
        <ele>0</ele>
        <time>2020-06-29T21:08:40Z</time>
      </trkpt>
      <trkpt lat="51.231290274908" lon="4.456475935331">
        <ele>2.2</ele>
        <time>2020-06-29T21:08:57Z</time>
      </trkpt>
      <trkpt lat="51.23124233044" lon="4.457188564469">
        <ele>0</ele>
        <time>2020-06-29T21:09:32Z</time>
      </trkpt>
      <trkpt lat="51.231193631601" lon="4.45754135864">
        <ele>3.8</ele>
        <time>2020-06-29T21:09:53Z</time>
      </trkpt>
      <trkpt lat="51.230768585452" lon="4.457672032461">
        <ele>5</ele>
        <time>2020-06-29T21:10:31Z</time>
      </trkpt>
      <trkpt lat="51.230494916417" lon="4.45779113926">
        <ele>0</ele>
        <time>2020-06-29T21:11:04Z</time>
      </trkpt>
      <trkpt lat="51.230035504478" lon="4.457816368779">
        <ele>1.6</ele>
        <time>2020-06-29T21:11:41Z</time>
      </trkpt>
      <trkpt lat="51.229595957642" lon="4.458001860226">
        <ele>4.4</ele>
        <time>2020-06-29T21:12:47Z</time>
      </trkpt>
      <trkpt lat="51.229562849137" lon="4.458012924334">
        <ele>4.6</ele>
        <time>2020-06-29T21:12:50Z</time>
      </trkpt>
      <trkpt lat="51.229129421088" lon="4.458138569015">
        <ele>3.6</ele>
        <time>2020-06-29T21:13:43Z</time>
      </trkpt>
      <trkpt lat="51.228940912157" lon="4.458139574843">
        <ele>4.6</ele>
        <time>2020-06-29T21:14:05Z</time>
      </trkpt>
      <trkpt lat="51.228574623127" lon="4.458396144802">
        <ele>7.2</ele>
        <time>2020-06-29T21:14:55Z</time>
      </trkpt>
      <trkpt lat="51.228658777403" lon="4.459095698176">
        <ele>0</ele>
        <time>2020-06-29T21:15:38Z</time>
      </trkpt>
      <trkpt lat="51.22860873746" lon="4.459187899076">
        <ele>0</ele>
        <time>2020-06-29T21:15:47Z</time>
      </trkpt>
      <trkpt lat="51.228558362241" lon="4.459187396162">
        <ele>0</ele>
        <time>2020-06-29T21:15:52Z</time>
      </trkpt>
      <trkpt lat="51.228507735565" lon="4.458977094291">
        <ele>0</ele>
        <time>2020-06-29T21:16:10Z</time>
      </trkpt>
      <trkpt lat="51.228510333954" lon="4.458890090169">
        <ele>0</ele>
        <time>2020-06-29T21:16:16Z</time>
      </trkpt>
      <trkpt lat="51.228542017536" lon="4.458205791853">
        <ele>0</ele>
        <time>2020-06-29T21:17:15Z</time>
      </trkpt>
      <trkpt lat="51.228744188964" lon="4.458170755511">
        <ele>0</ele>
        <time>2020-06-29T21:17:58Z</time>
      </trkpt>
      <trkpt lat="51.229194296994" lon="4.458054750015">
        <ele>0</ele>
        <time>2020-06-29T21:18:39Z</time>
      </trkpt>
      <trkpt lat="51.229639040608" lon="4.457897673209">
        <ele>6.8</ele>
        <time>2020-06-29T21:19:17Z</time>
      </trkpt>
      <trkpt lat="51.229668125801" lon="4.457809160345">
        <ele>12.8</ele>
        <time>2020-06-29T21:19:51Z</time>
      </trkpt>
    </trkseg>
  </trk>
</gpx>